Time;durP1;ratioP1;P1;durP2;ratioP2;P2;SDS_P1;SDS_P2;PMS_P1;PMS_P2;Temp;Humidity;BMP_temperature;BMP_pressure;BME280_temperature;BME280_humidity;BME280_pressure;Samples;Min_cycle;Max_cycle;Signal;HPM_P1;HPM_P2
2021/05/08 00:01:19;;;;;;;7.10;3.78;;;;;;;1.04;83.22;99177.75;5079137;28;20021;-71
2021/05/08 00:03:45;;;;;;;4.70;3.05;;;;;;;1.13;82.22;99173.47;5078204;28;20028;-71
2021/05/08 00:06:12;;;;;;;5.72;3.42;;;;;;;1.00;82.54;99140.88;5060068;28;20032;-71
2021/05/08 00:08:37;;;;;;;6.10;3.38;;;;;;;1.18;82.59;99173.91;5066517;28;20024;-71
2021/05/08 00:11:03;;;;;;;4.72;3.10;;;;;;;1.24;81.66;99167.19;5079597;28;20020;-71
2021/05/08 00:13:29;;;;;;;5.80;3.90;;;;;;;1.26;82.51;99173.22;5080513;28;20390;-71
2021/05/08 00:15:54;;;;;;;7.10;4.30;;;;;;;1.34;82.62;99165.41;5076465;28;20028;-71
2021/05/08 00:18:19;;;;;;;7.03;4.32;;;;;;;1.38;83.14;99164.13;5063989;28;20627;-71
2021/05/08 00:20:45;;;;;;;5.78;3.70;;;;;;;1.16;82.99;99159.03;5086780;28;20028;-71
2021/05/08 00:23:10;;;;;;;7.72;4.10;;;;;;;1.19;82.77;99164.09;5076008;28;20440;-71
2021/05/08 00:25:35;;;;;;;5.05;3.80;;;;;;;1.28;83.02;99165.91;5080441;28;20032;-71
2021/05/08 00:28:01;;;;;;;6.90;3.67;;;;;;;1.45;81.99;99159.13;5079436;28;20442;-71
2021/05/08 00:30:26;;;;;;;6.15;3.90;;;;;;;1.36;81.83;99162.56;5080285;28;20031;-71
2021/05/08 00:32:51;;;;;;;5.80;3.47;;;;;;;1.26;81.29;99170.56;5076209;28;20020;-71
2021/05/08 00:35:17;;;;;;;5.20;3.97;;;;;;;1.17;82.02;99177.53;5073953;28;20024;-71
2021/05/08 00:37:43;;;;;;;4.68;3.40;;;;;;;1.08;82.17;99165.88;5076355;28;20021;-71
2021/05/08 00:40:09;;;;;;;4.82;3.58;;;;;;;1.14;82.03;99176.97;5079308;28;20020;-71
2021/05/08 00:42:35;;;;;;;5.80;3.30;;;;;;;1.09;82.03;99164.88;5096095;28;20117;-71
2021/05/08 00:45:00;;;;;;;5.43;3.50;;;;;;;1.13;81.88;99165.47;5081497;28;20028;-71
2021/05/08 00:47:26;;;;;;;4.78;3.05;;;;;;;0.98;81.95;99162.31;5094828;28;20032;-71
2021/05/08 00:49:51;;;;;;;4.00;3.08;;;;;;;0.99;82.50;99163.16;5094582;28;20017;-71
2021/05/08 00:52:17;;;;;;;7.22;2.97;;;;;;;0.93;82.70;99172.53;5116132;28;20019;-71
2021/05/08 00:54:42;;;;;;;4.68;2.72;;;;;;;0.86;82.87;99164.22;5095344;28;20024;-70
2021/05/08 00:57:09;;;;;;;5.90;2.95;;;;;;;0.90;82.40;99164.81;5107603;28;20050;-71
2021/05/08 00:59:35;;;;;;;5.97;3.97;;;;;;;0.87;82.71;99167.72;5107841;28;20092;-71
2021/05/08 01:02:02;;;;;;;4.72;3.70;;;;;;;0.77;83.55;99175.66;5094064;28;20024;-71
2021/05/08 01:04:27;;;;;;;5.97;3.55;;;;;;;0.67;83.59;99177.44;5095522;28;20041;-71
2021/05/08 01:06:53;;;;;;;6.35;3.70;;;;;;;0.61;84.20;99180.63;5104551;28;20012;-70
2021/05/08 01:09:21;;;;;;;5.65;3.65;;;;;;;0.57;84.50;99184.50;5089877;28;20029;-71
2021/05/08 01:11:46;;;;;;;5.13;3.28;;;;;;;0.60;83.99;99179.78;5088599;28;20020;-71
2021/05/08 01:14:12;;;;;;;5.13;3.47;;;;;;;0.60;84.31;99174.47;5106534;28;20039;-71
2021/05/08 01:16:37;;;;;;;4.78;3.10;;;;;;;0.57;84.11;99174.69;5111732;28;20039;-70
2021/05/08 01:19:05;;;;;;;5.07;3.38;;;;;;;0.52;83.79;99168.09;5105808;28;20114;-70
2021/05/08 01:21:30;;;;;;;6.40;3.20;;;;;;;0.56;84.02;99165.03;5115523;28;20047;-70
2021/05/08 01:23:56;;;;;;;5.97;3.45;;;;;;;0.51;84.88;99163.75;5092710;28;20028;-70
2021/05/08 01:26:21;;;;;;;4.00;3.10;;;;;;;0.47;84.32;99165.81;5114595;28;20058;-70
2021/05/08 01:28:46;;;;;;;5.85;3.42;;;;;;;0.42;84.45;99160.91;5102907;28;20024;-71
2021/05/08 01:31:12;;;;;;;7.30;3.40;;;;;;;0.47;84.49;99173.78;5111268;28;20016;-71
2021/05/08 01:33:39;;;;;;;4.30;2.80;;;;;;;0.49;83.85;99173.66;5101205;28;20021;-70
2021/05/08 01:36:05;;;;;;;4.63;3.40;;;;;;;0.43;84.40;99172.38;5091698;28;20020;-70
2021/05/08 01:38:32;;;;;;;5.65;3.67;;;;;;;0.46;84.80;99176.59;5100083;28;20016;-70
2021/05/08 01:41:00;;;;;;;6.97;3.55;;;;;;;0.48;84.26;99178.16;5074579;28;20036;-70
2021/05/08 01:43:26;;;;;;;7.00;3.33;;;;;;;0.36;84.94;99172.03;5091407;28;20076;-69
2021/05/08 01:45:51;;;;;;;4.55;3.30;;;;;;;0.26;84.96;99171.13;5090470;28;20019;-70
2021/05/08 01:48:16;;;;;;;4.00;2.83;;;;;;;0.29;84.92;99170.03;5097298;28;20024;-70
2021/05/08 01:50:42;;;;;;;5.38;3.67;;;;;;;0.19;85.01;99159.31;5086306;28;20024;-70
2021/05/08 01:53:07;;;;;;;4.70;3.17;;;;;;;0.18;85.41;99166.47;5100477;28;20026;-70
2021/05/08 01:55:32;;;;;;;5.28;3.55;;;;;;;0.08;85.09;99152.25;5090269;28;20042;-70
2021/05/08 01:57:58;;;;;;;5.05;3.42;;;;;;;0.18;85.70;99165.59;5080239;28;20028;-70
2021/05/08 02:00:27;;;;;;;5.53;3.47;;;;;;;0.19;85.38;99164.66;5077979;28;20035;-70
2021/05/08 02:02:53;;;;;;;5.20;3.58;;;;;;;0.16;85.74;99159.59;5080109;28;20813;-71
2021/05/08 02:05:20;;;;;;;4.55;3.42;;;;;;;0.21;85.93;99160.06;5110195;28;20036;-70
2021/05/08 02:07:45;;;;;;;6.75;3.53;;;;;;;0.10;85.35;99154.75;5093606;28;20028;-70
2021/05/08 02:10:13;;;;;;;4.22;3.08;;;;;;;0.15;85.58;99156.06;5073891;28;20073;-70
2021/05/08 02:12:39;;;;;;;3.95;2.92;;;;;;;0.14;85.21;99149.06;5063598;28;20405;-70
2021/05/08 02:15:10;;;;;;;3.72;3.00;;;;;;;0.10;84.99;99142.28;5072933;28;20028;-70
2021/05/08 02:17:36;;;;;;;5.97;3.50;;;;;;;0.13;85.34;99138.53;5072879;28;20123;-70
2021/05/08 02:20:28;;;;;;;5.63;3.67;;;;;;;0.11;85.46;99145.81;5055750;28;20043;-70
2021/05/08 02:22:55;;;;;;;3.92;2.92;;;;;;;0.02;84.88;99136.78;5073233;28;20571;-70
2021/05/08 02:25:21;;;;;;;5.13;3.65;;;;;;;-0.01;85.11;99137.03;5076241;28;20032;-70
2021/05/08 02:27:47;;;;;;;5.93;3.25;;;;;;;0.08;85.49;99141.59;5083441;28;20058;-70
2021/05/08 02:30:16;;;;;;;5.18;3.47;;;;;;;0.11;85.11;99137.84;5081688;28;20034;-70
2021/05/08 02:32:42;;;;;;;5.50;3.40;;;;;;;0.02;85.48;99131.47;5099649;28;20039;-70
2021/05/08 02:35:09;;;;;;;5.43;3.67;;;;;;;-0.08;85.23;99138.50;5088948;28;20032;-70
2021/05/08 02:37:35;;;;;;;5.20;3.20;;;;;;;-0.23;85.58;99136.16;5082212;28;20032;-70
2021/05/08 02:40:03;;;;;;;5.20;3.13;;;;;;;-0.23;85.89;99132.66;5084315;28;20033;-70
2021/05/08 02:42:28;;;;;;;5.32;3.22;;;;;;;-0.24;85.65;99128.31;5087585;28;20048;-70
2021/05/08 02:44:53;;;;;;;5.10;3.38;;;;;;;-0.09;85.94;99136.84;5100932;28;20032;-69
2021/05/08 02:47:19;;;;;;;4.78;2.83;;;;;;;-0.16;86.40;99139.16;5089474;28;20024;-70
2021/05/08 02:49:48;;;;;;;6.07;3.70;;;;;;;-0.22;86.02;99131.69;5085523;28;20085;-70
2021/05/08 02:52:15;;;;;;;5.25;3.60;;;;;;;-0.25;85.96;99139.91;5088242;28;20111;-70
2021/05/08 02:54:40;;;;;;;6.07;3.88;;;;;;;-0.28;85.98;99132.19;5063531;28;20107;-70
2021/05/08 02:57:06;;;;;;;6.10;3.60;;;;;;;-0.25;86.40;99134.59;5088486;28;20433;-70
2021/05/08 02:59:31;;;;;;;6.80;3.67;;;;;;;-0.14;86.04;99125.75;5094702;28;20039;-70
2021/05/08 03:01:57;;;;;;;5.65;3.83;;;;;;;-0.07;85.65;99129.59;5111520;28;20024;-70
2021/05/08 03:04:22;;;;;;;8.52;3.63;;;;;;;0.07;84.94;99131.91;5112603;28;20045;-70
2021/05/08 03:06:47;;;;;;;5.97;3.63;;;;;;;0.13;84.62;99123.44;5109778;28;20031;-71
2021/05/08 03:09:13;;;;;;;5.07;3.47;;;;;;;0.28;84.34;99125.75;5095205;28;20489;-69
2021/05/08 03:11:38;;;;;;;5.03;3.20;;;;;;;0.32;83.82;99128.03;5117202;28;20061;-70
2021/05/08 03:14:03;;;;;;;4.80;3.50;;;;;;;0.30;83.65;99124.66;5116835;28;20024;-70
2021/05/08 03:16:29;;;;;;;4.97;3.75;;;;;;;0.28;84.00;99115.13;5100115;28;20043;-70
2021/05/08 03:18:55;;;;;;;7.22;3.60;;;;;;;0.34;83.23;99110.13;5089177;28;20066;-70
2021/05/08 03:21:20;;;;;;;7.50;3.25;;;;;;;0.44;82.82;99115.50;5078658;28;20545;-70
2021/05/08 03:23:46;;;;;;;6.10;3.90;;;;;;;0.65;81.71;99119.00;5078477;28;20145;-70
2021/05/08 03:26:11;;;;;;;5.63;3.85;;;;;;;0.58;82.49;99123.16;5079067;28;20093;-70
2021/05/08 03:28:36;;;;;;;5.03;3.35;;;;;;;0.60;81.56;99115.03;5095260;28;20515;-69
2021/05/08 03:31:02;;;;;;;4.10;3.33;;;;;;;0.56;81.39;99108.28;5099447;28;20150;-70
2021/05/08 03:33:27;;;;;;;4.80;3.15;;;;;;;0.51;82.38;99107.84;5087189;28;20032;-70
2021/05/08 03:35:52;;;;;;;5.55;3.63;;;;;;;0.57;81.53;99109.97;5066284;28;20024;-70
2021/05/08 03:38:17;;;;;;;5.88;3.20;;;;;;;0.44;81.40;99105.69;5075127;28;20048;-70
2021/05/08 03:40:43;;;;;;;6.22;3.83;;;;;;;0.45;82.14;99106.56;5076388;28;20055;-70
2021/05/08 03:43:08;;;;;;;4.72;3.50;;;;;;;0.54;82.38;99119.06;5090479;28;20053;-70
2021/05/08 03:45:33;;;;;;;4.85;3.13;;;;;;;0.54;81.50;99119.06;5097293;28;20036;-70
2021/05/08 03:48:00;;;;;;;4.97;3.53;;;;;;;0.49;81.39;99107.97;5076965;28;20375;-69
2021/05/08 03:50:25;;;;;;;4.45;3.20;;;;;;;0.43;81.45;99104.00;5079583;28;20020;-70
2021/05/08 03:52:51;;;;;;;4.65;3.05;;;;;;;0.35;81.46;99106.50;5058064;28;20082;-70
2021/05/08 03:55:16;;;;;;;5.15;3.67;;;;;;;0.53;81.63;99109.41;5078401;28;20082;-70
2021/05/08 03:57:41;;;;;;;5.40;3.58;;;;;;;0.62;81.80;99118.41;5077070;28;20452;-70
2021/05/08 04:00:07;;;;;;;5.50;3.10;;;;;;;0.63;82.01;99118.28;5089382;28;20462;-70
2021/05/08 04:02:32;;;;;;;5.53;3.30;;;;;;;0.86;80.99;99120.75;5075436;28;20024;-69
2021/05/08 04:04:58;;;;;;;4.75;3.22;;;;;;;0.91;80.95;99105.22;5075026;28;20371;-70
2021/05/08 04:07:23;;;;;;;5.80;3.55;;;;;;;0.96;80.32;99115.47;5062528;28;20024;-69
2021/05/08 04:09:48;;;;;;;6.43;3.45;;;;;;;1.02;79.69;99112.25;5075463;28;20042;-71
2021/05/08 04:12:13;;;;;;;4.65;3.05;;;;;;;0.84;80.27;99083.63;5089145;28;20043;-73
2021/05/08 04:14:39;;;;;;;6.78;3.38;;;;;;;0.90;80.67;99084.06;5064693;28;20020;-74
2021/05/08 04:17:04;;;;;;;8.95;3.30;;;;;;;0.95;79.88;99077.34;5073726;28;20059;-72
2021/05/08 04:19:29;;;;;;;7.78;3.90;;;;;;;1.19;80.17;99097.47;5087077;28;20495;-73
2021/05/08 04:21:55;;;;;;;4.75;3.40;;;;;;;1.14;79.94;99086.38;5096426;28;20028;-74
2021/05/08 04:24:20;;;;;;;5.25;3.40;;;;;;;1.22;80.05;99094.50;5075291;28;20032;-74
2021/05/08 04:26:45;;;;;;;4.90;3.13;;;;;;;1.37;79.25;99114.47;5080524;28;20396;-69
2021/05/08 04:29:11;;;;;;;5.68;3.42;;;;;;;1.38;78.50;99107.31;5078006;28;20613;-72
2021/05/08 04:31:36;;;;;;;8.13;3.20;;;;;;;1.36;79.03;99107.44;5070286;28;20115;-73
2021/05/08 04:34:02;;;;;;;5.65;3.33;;;;;;;1.51;78.55;99111.41;5096475;28;20388;-72
2021/05/08 04:36:27;;;;;;;4.53;3.20;;;;;;;1.52;78.79;99107.78;5070445;28;20027;-73
2021/05/08 04:38:52;;;;;;;4.32;3.30;;;;;;;1.52;78.57;99110.44;5068528;28;20029;-74
2021/05/08 04:41:18;;;;;;;5.05;2.88;;;;;;;1.56;78.91;99094.16;5074312;28;20036;-74
2021/05/08 04:43:43;;;;;;;4.85;3.30;;;;;;;1.64;79.00;99104.97;5082708;28;20692;-73
2021/05/08 04:46:09;;;;;;;4.18;3.28;;;;;;;1.67;79.35;99091.34;5093424;28;20084;-74
2021/05/08 04:48:34;;;;;;;5.50;3.45;;;;;;;1.70;79.18;99080.38;5079225;28;20436;-72
2021/05/08 04:51:00;;;;;;;5.35;3.30;;;;;;;1.92;78.61;99106.81;5079403;28;20028;-67
2021/05/08 04:53:27;;;;;;;6.55;3.35;;;;;;;1.92;78.50;99101.47;5062952;28;20031;-69
2021/05/08 04:55:52;;;;;;;4.78;3.33;;;;;;;2.04;78.19;99101.31;5092990;28;20028;-71
2021/05/08 04:58:19;;;;;;;6.97;3.58;;;;;;;2.11;77.39;99097.09;5076372;28;20041;-75
2021/05/08 05:00:44;;;;;;;7.13;3.60;;;;;;;2.28;77.67;99091.03;5091068;28;20028;-66
2021/05/08 05:03:09;;;;;;;4.97;3.35;;;;;;;2.27;77.46;99086.66;5086718;28;20396;-69
2021/05/08 05:05:35;;;;;;;4.65;3.63;;;;;;;2.47;76.78;99094.66;5073222;28;20036;-70
2021/05/08 05:08:00;;;;;;;4.95;3.22;;;;;;;2.65;76.46;99090.25;5055663;28;20031;-69
2021/05/08 05:10:26;;;;;;;4.63;3.00;;;;;;;2.86;74.80;99092.69;5073191;28;20406;-69
2021/05/08 05:12:51;;;;;;;5.85;3.00;;;;;;;3.14;74.39;99104.22;5074895;28;20038;-70
2021/05/08 05:15:18;;;;;;;4.18;2.95;;;;;;;3.31;74.03;99102.59;5082862;28;20107;-69
2021/05/08 05:17:43;;;;;;;4.95;3.45;;;;;;;3.41;73.84;99091.84;5074030;28;20079;-68
2021/05/08 05:20:11;;;;;;;3.92;2.70;;;;;;;3.46;73.33;99084.22;5074856;28;20463;-69
2021/05/08 05:22:37;;;;;;;4.90;3.13;;;;;;;3.66;72.54;99095.59;5073956;28;20056;-69
2021/05/08 05:25:03;;;;;;;5.57;3.53;;;;;;;3.68;72.77;99090.94;5055396;28;20067;-69
2021/05/08 05:27:29;;;;;;;5.38;3.08;;;;;;;3.80;72.31;99091.53;5072308;28;20028;-69
2021/05/08 05:29:54;;;;;;;3.90;3.03;;;;;;;3.94;72.27;99099.06;5084422;28;20040;-69
2021/05/08 05:32:20;;;;;;;4.63;3.30;;;;;;;4.13;71.54;99098.88;5091060;28;20028;-70
2021/05/08 05:34:45;;;;;;;4.93;3.13;;;;;;;4.27;72.01;99088.59;5084686;28;20444;-70
2021/05/08 05:37:10;;;;;;;4.57;3.15;;;;;;;4.32;71.13;99076.44;5077754;28;20043;-76
2021/05/08 05:39:36;;;;;;;3.70;2.88;;;;;;;4.64;70.01;99099.09;5061980;28;20036;-69
2021/05/08 05:42:01;;;;;;;6.78;3.47;;;;;;;4.96;68.42;99094.91;5072091;28;20673;-69
2021/05/08 05:44:27;;;;;;;4.45;3.28;;;;;;;5.21;67.49;99090.47;5075577;28;20029;-70
2021/05/08 05:46:52;;;;;;;4.50;3.22;;;;;;;5.41;66.53;99110.66;5090482;28;20140;-68
2021/05/08 05:49:17;;;;;;;5.85;3.40;;;;;;;5.69;66.63;99103.19;5074002;28;20414;-68
2021/05/08 05:51:43;;;;;;;5.32;2.90;;;;;;;5.90;66.45;99097.34;5072324;28;20055;-69
2021/05/08 05:54:08;;;;;;;5.28;3.35;;;;;;;6.14;65.66;99099.25;5076508;28;20482;-71
2021/05/08 05:56:34;;;;;;;4.75;3.10;;;;;;;6.42;65.23;99096.22;5054035;28;20028;-72
2021/05/08 05:58:59;;;;;;;4.47;3.08;;;;;;;6.52;64.29;99080.75;5076423;28;20040;-72
2021/05/08 06:01:24;;;;;;;5.25;3.40;;;;;;;6.70;64.28;99088.59;5079528;28;20032;-72
2021/05/08 06:03:50;;;;;;;3.83;2.90;;;;;;;6.68;63.85;99074.50;5069286;28;20124;-72
2021/05/08 06:06:16;;;;;;;6.03;3.78;;;;;;;6.86;63.60;99078.81;5054865;28;20028;-72
2021/05/08 06:08:41;;;;;;;4.18;3.28;;;;;;;7.14;63.54;99071.97;5077710;28;20048;-72
2021/05/08 06:11:07;;;;;;;5.50;3.60;;;;;;;7.34;63.34;99067.03;5072101;28;20085;-72
2021/05/08 06:13:33;;;;;;;4.32;3.00;;;;;;;7.83;62.26;99068.56;5074898;28;20044;-73
2021/05/08 06:15:59;;;;;;;3.97;2.78;;;;;;;8.53;60.53;99072.91;5054727;28;20032;-73
2021/05/08 06:18:25;;;;;;;5.15;2.70;;;;;;;9.45;60.15;99083.31;5085230;28;20039;-73
2021/05/08 06:20:50;;;;;;;4.40;3.30;;;;;;;10.21;58.66;99078.28;5074530;28;20025;-73
2021/05/08 06:23:15;;;;;;;4.03;2.90;;;;;;;11.32;55.05;99083.06;5053422;28;20481;-73
2021/05/08 06:25:41;;;;;;;3.47;2.67;;;;;;;13.14;51.67;99052.13;5071700;28;20486;-73
2021/05/08 06:28:06;;;;;;;5.22;2.88;;;;;;;15.25;47.18;99075.38;5054133;28;20032;-73
2021/05/08 06:30:32;;;;;;;3.90;2.83;;;;;;;17.17;42.76;99048.94;5054470;28;20028;-72
2021/05/08 06:32:57;;;;;;;4.32;2.20;;;;;;;19.44;38.67;99061.69;5079387;28;20032;-73
2021/05/08 06:35:22;;;;;;;3.72;2.72;;;;;;;19.53;37.15;99061.22;5071746;28;20020;-73
2021/05/08 06:37:51;;;;;;;3.60;2.90;;;;;;;19.78;36.56;99067.06;5087088;28;20392;-74
2021/05/08 06:40:17;;;;;;;4.43;2.75;;;;;;;21.46;34.48;99055.81;5057971;28;20028;-73
2021/05/08 06:42:42;;;;;;;3.13;2.60;;;;;;;21.15;34.74;99041.84;5071758;28;20032;-72
2021/05/08 06:45:08;;;;;;;3.83;2.67;;;;;;;21.47;33.90;99054.69;5085820;28;20099;-73
2021/05/08 06:47:33;;;;;;;3.30;2.42;;;;;;;20.72;34.22;99063.03;5077580;28;20028;-73
2021/05/08 06:49:59;;;;;;;4.45;2.47;;;;;;;21.57;32.40;99060.25;5060293;28;20047;-73
2021/05/08 06:52:24;;;;;;;3.80;2.53;;;;;;;22.73;30.26;99046.13;5055217;28;20021;-69
2021/05/08 06:54:50;;;;;;;4.15;2.30;;;;;;;22.38;30.73;99041.47;5071438;28;20033;-71
2021/05/08 06:57:15;;;;;;;5.07;2.38;;;;;;;21.70;31.60;99036.06;5080157;28;20043;-69
2021/05/08 06:59:41;;;;;;;3.90;2.50;;;;;;;22.28;30.87;99028.50;5086709;28;20023;-79
2021/05/08 07:02:07;;;;;;;5.45;2.60;;;;;;;22.66;30.20;99031.78;5064309;28;20017;-79
2021/05/08 07:04:33;;;;;;;5.32;2.40;;;;;;;23.11;29.60;99033.69;5062692;28;20044;-73
2021/05/08 07:06:58;;;;;;;5.15;2.75;;;;;;;22.18;30.80;99033.97;5059488;28;20028;-73
2021/05/08 07:09:23;;;;;;;4.63;2.83;;;;;;;20.57;32.95;99007.94;5084632;28;20031;-74
2021/05/08 07:11:49;;;;;;;5.45;2.80;;;;;;;21.50;31.86;99026.63;5078808;28;20036;-73
2021/05/08 07:14:14;;;;;;;3.67;2.67;;;;;;;22.05;31.62;99029.81;5077965;28;20636;-77
2021/05/08 07:16:40;;;;;;;5.55;3.08;;;;;;;22.30;30.43;99023.53;5063170;28;20047;-77
2021/05/08 07:19:05;;;;;;;6.25;2.78;;;;;;;21.92;30.97;99014.63;5094954;28;20031;-78
2021/05/08 07:21:30;;;;;;;4.53;3.00;;;;;;;21.94;31.42;98995.09;5065129;28;20104;-72
2021/05/08 07:23:56;;;;;;;4.40;2.70;;;;;;;21.64;31.72;99005.78;5076813;28;20028;-78
2021/05/08 07:26:21;;;;;;;3.92;2.80;;;;;;;21.79;31.77;99023.41;5057910;28;20024;-76
2021/05/08 07:28:46;;;;;;;9.32;2.90;;;;;;;20.63;32.68;98990.38;5067957;28;20105;-77
2021/05/08 07:31:12;;;;;;;3.80;2.50;;;;;;;20.64;32.61;99011.28;5075827;28;20470;-77
2021/05/08 07:33:37;;;;;;;7.93;2.72;;;;;;;21.63;31.74;98997.75;5076149;28;20037;-75
2021/05/08 07:36:03;;;;;;;3.40;2.58;;;;;;;22.60;30.67;99005.31;5057214;28;20116;-74
2021/05/08 07:38:28;;;;;;;4.15;2.72;;;;;;;22.74;30.45;98998.97;5066327;28;20028;-76
2021/05/08 07:40:54;;;;;;;4.47;2.65;;;;;;;22.03;31.21;99007.22;5078630;28;20020;-74
2021/05/08 07:43:21;;;;;;;4.68;2.40;;;;;;;20.66;32.29;99014.59;5086507;28;20039;-74
2021/05/08 07:45:47;;;;;;;4.40;2.35;;;;;;;19.49;33.79;99022.47;5079435;28;20064;-72
2021/05/08 07:48:13;;;;;;;3.60;2.15;;;;;;;18.53;34.78;99014.56;5066439;28;20030;-73
2021/05/08 07:50:39;;;;;;;4.22;2.67;;;;;;;18.79;35.84;99011.16;5058008;28;20024;-72
2021/05/08 07:53:04;;;;;;;4.00;2.53;;;;;;;20.65;34.11;99017.63;5077044;28;20024;-71
2021/05/08 07:55:30;;;;;;;2.88;2.22;;;;;;;20.77;33.24;99008.06;5066616;28;20073;-75
2021/05/08 07:57:56;;;;;;;3.80;2.42;;;;;;;20.95;32.67;99030.72;5073695;28;20028;-70
2021/05/08 08:00:22;;;;;;;4.38;2.42;;;;;;;21.40;32.49;99012.81;5080431;28;20025;-71
2021/05/08 08:02:49;;;;;;;3.92;2.20;;;;;;;20.56;32.95;99017.25;5074232;28;20066;-70
2021/05/08 08:05:14;;;;;;;3.20;1.92;;;;;;;20.03;33.49;99035.47;5078691;28;20031;-72
2021/05/08 08:07:39;;;;;;;5.45;2.30;;;;;;;20.31;32.79;99028.88;5083206;28;20025;-70
2021/05/08 08:10:06;;;;;;;4.28;1.88;;;;;;;20.02;33.13;99023.66;5082160;28;20028;-71
2021/05/08 08:12:32;;;;;;;3.83;1.90;;;;;;;20.64;32.47;99000.28;5084452;28;20024;-70
2021/05/08 08:14:59;;;;;;;3.47;1.52;;;;;;;21.89;31.06;99018.75;5075900;28;20040;-71
2021/05/08 08:17:24;;;;;;;2.95;1.88;;;;;;;21.76;30.88;99016.53;5075002;28;20035;-70
2021/05/08 08:19:50;;;;;;;2.63;1.63;;;;;;;22.21;30.03;99019.66;5079041;28;20028;-70
2021/05/08 08:22:16;;;;;;;3.85;1.92;;;;;;;22.97;28.96;99014.09;5074998;28;20028;-71
2021/05/08 08:24:43;;;;;;;2.97;1.70;;;;;;;24.81;27.21;99000.31;5073578;28;20050;-71
2021/05/08 08:27:10;;;;;;;6.88;1.95;;;;;;;25.20;27.08;99010.44;5073058;28;20107;-71
2021/05/08 08:29:35;;;;;;;8.40;2.30;;;;;;;23.40;27.72;99017.31;5074621;28;20040;-70
2021/05/08 08:32:01;;;;;;;3.67;1.90;;;;;;;22.99;28.31;99015.78;5074408;28;20021;-72
2021/05/08 08:34:26;;;;;;;2.63;1.70;;;;;;;21.74;30.33;99023.41;5076511;28;20063;-71
2021/05/08 08:36:51;;;;;;;2.80;1.75;;;;;;;22.54;28.56;99004.50;5079238;28;20024;-74
2021/05/08 08:39:17;;;;;;;2.70;1.63;;;;;;;23.70;27.58;99001.69;5091128;28;20098;-75
2021/05/08 08:41:42;;;;;;;2.22;1.40;;;;;;;22.93;28.92;99017.69;5105989;28;20474;-77
2021/05/08 08:44:10;;;;;;;2.10;1.65;;;;;;;23.93;27.90;98991.09;5078109;28;20035;-76
2021/05/08 08:46:46;;;;;;;3.28;1.90;;;;;;;22.81;29.41;98986.81;5067327;28;20033;-77
2021/05/08 08:49:13;;;;;;;2.50;1.77;;;;;;;21.77;30.30;98987.91;5067180;28;20043;-77
2021/05/08 08:51:39;;;;;;;3.17;1.50;;;;;;;21.42;31.01;99007.88;5057133;28;20032;-77
2021/05/08 08:54:05;;;;;;;7.45;1.75;;;;;;;20.76;30.99;99000.91;5086245;28;20024;-78
2021/05/08 08:56:38;;;;;;;3.90;1.52;;;;;;;19.88;32.33;98998.50;5061653;28;20048;-76
2021/05/08 08:59:12;;;;;;;2.60;1.70;;;;;;;18.49;34.19;98992.28;5093198;28;20028;-78
2021/05/08 09:01:38;;;;;;;2.67;1.92;;;;;;;18.38;34.49;99005.00;5092897;28;20032;-78
2021/05/08 09:04:03;;;;;;;4.82;1.70;;;;;;;19.07;34.08;99005.75;5062065;28;20023;-71
2021/05/08 09:06:30;;;;;;;2.80;1.63;;;;;;;18.27;35.09;98996.88;5072500;28;20038;-70
2021/05/08 09:08:56;;;;;;;4.93;1.73;;;;;;;16.81;38.12;98995.41;5072902;28;20087;-70
2021/05/08 09:11:23;;;;;;;3.95;1.92;;;;;;;17.80;37.00;98997.16;5076096;28;20024;-70
2021/05/08 09:14:15;;;;;;;3.00;1.55;;;;;;;19.19;35.03;98993.59;5080443;28;20417;-71
2021/05/08 09:17:00;;;;;;;3.90;1.42;;;;;;;18.93;33.97;98986.94;5076411;28;20075;-71
2021/05/08 09:19:25;;;;;;;3.08;1.85;;;;;;;18.18;34.58;98983.59;5073741;28;20024;-71
2021/05/08 09:21:51;;;;;;;4.63;1.77;;;;;;;18.45;34.64;98982.94;5079162;28;20031;-75
2021/05/08 09:24:16;;;;;;;3.88;1.50;;;;;;;18.14;34.75;98981.59;5084950;28;20392;-77
2021/05/08 09:26:44;;;;;;;3.60;1.60;;;;;;;17.93;34.72;98981.25;5089092;28;20028;-71
2021/05/08 09:29:18;;;;;;;3.00;1.50;;;;;;;17.73;36.01;98976.19;5083618;28;20019;-70
2021/05/08 09:31:57;;;;;;;1.88;1.25;;;;;;;17.59;34.65;98963.91;5074273;28;20067;-70
2021/05/08 09:34:24;;;;;;;5.15;1.20;;;;;;;17.78;34.41;98961.78;5072546;28;20024;-71
2021/05/08 09:36:51;;;;;;;1.90;1.30;;;;;;;17.82;34.72;98959.44;5071402;28;20040;-70
2021/05/08 09:39:33;;;;;;;1.73;1.10;;;;;;;18.00;34.41;98958.34;5076504;28;20028;-71
2021/05/08 09:42:01;;;;;;;2.90;1.27;;;;;;;17.53;35.47;98959.44;5074914;28;20394;-71
2021/05/08 09:44:26;;;;;;;5.72;1.33;;;;;;;18.08;34.11;98953.31;5072262;28;20512;-72
2021/05/08 09:46:52;;;;;;;3.85;1.40;;;;;;;17.92;35.22;98945.91;5073908;28;20032;-70
2021/05/08 09:49:21;;;;;;;3.00;1.48;;;;;;;17.81;34.56;98949.56;5075931;28;20031;-71
2021/05/08 09:52:06;;;;;;;1.92;1.33;;;;;;;17.58;35.14;98954.06;5072226;28;20035;-70
2021/05/08 09:54:32;;;;;;;3.25;1.60;;;;;;;17.81;35.48;98955.03;5077141;28;20084;-70
2021/05/08 09:56:57;;;;;;;3.30;1.60;;;;;;;17.61;35.00;98937.16;5073580;28;20103;-71
2021/05/08 09:59:38;;;;;;;2.33;1.20;;;;;;;18.12;35.78;98951.72;5071169;28;20066;-71
2021/05/08 10:02:04;;;;;;;2.40;1.15;;;;;;;18.68;34.40;98951.75;5074308;28;20028;-71
2021/05/08 10:04:33;;;;;;;1.90;1.10;;;;;;;18.86;33.29;98945.16;5073446;28;20047;-71
2021/05/08 10:07:19;;;;;;;4.22;1.25;;;;;;;19.10;33.60;98956.75;5075784;28;20047;-69
2021/05/08 10:09:46;;;;;;;5.53;1.25;;;;;;;19.47;33.00;98940.44;5069985;28;20044;-70
2021/05/08 10:12:14;;;;;;;3.58;1.40;;;;;;;20.66;31.44;98934.03;5077660;28;20063;-71
2021/05/08 10:14:41;;;;;;;2.03;1.13;;;;;;;20.06;33.25;98936.06;5073286;28;20028;-71
2021/05/08 10:17:10;;;;;;;5.10;1.10;;;;;;;21.09;31.00;98930.13;5071959;28;20051;-68
2021/05/08 10:19:37;;;;;;;2.50;1.15;;;;;;;21.43;30.08;98925.06;5059624;28;20039;-71
2021/05/08 10:22:07;;;;;;;2.67;1.25;;;;;;;21.42;30.52;98917.88;5077042;28;20510;-71
2021/05/08 10:24:35;;;;;;;2.60;1.20;;;;;;;22.20;28.75;98913.28;5072169;28;20032;-73
2021/05/08 10:27:01;;;;;;;2.55;1.10;;;;;;;22.20;30.09;98916.06;5087261;28;20058;-74
2021/05/08 10:29:28;;;;;;;2.00;0.90;;;;;;;22.61;28.36;98907.69;5079803;28;20066;-76
2021/05/08 10:31:59;;;;;;;3.55;1.15;;;;;;;21.51;28.67;98914.56;5080793;28;20047;-74
2021/05/08 10:34:33;;;;;;;2.13;1.13;;;;;;;22.27;28.06;98897.31;5067698;28;20055;-72
2021/05/08 10:37:12;;;;;;;3.47;1.10;;;;;;;21.66;29.22;98895.34;5087691;28;20032;-74
2021/05/08 10:39:55;;;;;;;1.90;1.00;;;;;;;23.02;28.81;98882.75;5053893;28;20414;-74
2021/05/08 10:42:40;;;;;;;1.88;1.13;;;;;;;25.26;25.40;98888.25;5073269;28;20085;-78
2021/05/08 10:45:11;;;;;;;1.48;1.15;;;;;;;23.78;27.33;98898.06;5050427;22;20033;-72
2021/05/08 10:48:04;;;;;;;5.00;1.40;;;;;;;24.22;26.27;98883.31;5048909;28;20021;-69
2021/05/08 10:50:35;;;;;;;2.40;1.42;;;;;;;23.53;27.05;98883.31;5043506;28;20040;-64
2021/05/08 10:53:04;;;;;;;3.45;1.50;;;;;;;23.58;26.04;98877.75;5044056;28;20025;-67
2021/05/08 10:55:49;;;;;;;2.35;1.33;;;;;;;23.84;26.65;98863.75;5047859;28;20030;-68
2021/05/08 10:58:18;;;;;;;2.53;1.10;;;;;;;24.45;25.71;98862.38;5045784;28;20040;-76
2021/05/08 11:00:50;;;;;;;2.83;1.13;;;;;;;25.70;25.42;98852.97;5069694;28;20112;-79
2021/05/08 11:03:17;;;;;;;3.25;1.10;;;;;;;25.34;25.47;98850.78;5035841;28;20017;-78
2021/05/08 11:06:13;;;;;;;2.05;1.20;;;;;;;25.13;25.55;98839.94;5053051;28;20108;-76
2021/05/08 11:08:41;;;;;;;2.38;1.10;;;;;;;24.45;26.96;98840.25;5048553;28;20028;-76
2021/05/08 11:11:12;;;;;;;2.47;0.80;;;;;;;24.54;26.28;98832.13;5030748;28;20390;-70
2021/05/08 11:13:41;;;;;;;1.45;0.93;;;;;;;23.03;27.68;98857.66;5042207;28;20079;-77
2021/05/08 11:16:07;;;;;;;2.67;1.30;;;;;;;24.02;26.50;98840.91;5037290;28;20554;-70
2021/05/08 11:18:33;;;;;;;2.90;1.00;;;;;;;24.91;25.39;98842.47;5035568;28;20021;-70
2021/05/08 11:21:03;;;;;;;1.55;0.82;;;;;;;24.86;26.90;98839.75;5017372;28;20030;-70
2021/05/08 11:23:47;;;;;;;3.83;1.20;;;;;;;25.20;26.75;98836.00;5035331;28;20057;-70
2021/05/08 11:26:22;;;;;;;1.95;1.20;;;;;;;25.73;25.81;98821.91;5028566;28;20029;-70
2021/05/08 11:29:11;;;;;;;3.17;1.20;;;;;;;24.49;26.50;98836.59;5034726;28;20033;-70
2021/05/08 11:31:47;;;;;;;2.00;1.17;;;;;;;23.82;27.17;98841.94;5018594;28;20025;-70
2021/05/08 11:34:28;;;;;;;2.42;1.30;;;;;;;24.08;27.47;98840.88;5045809;28;20074;-70
2021/05/08 11:37:01;;;;;;;2.03;1.17;;;;;;;24.35;26.70;98829.28;5056954;28;20036;-70